Thai Muang, Thailand
Current Conditions -  °F | °C
As of 9:30 AM on Sunday 26 Oct 2014 (Local Time) from VTSP Reporting Station
Broken Clouds Broken Clouds  
Wind Chill: 84°   Ceiling: 30000
Heat Index: 92°   Visibility: 6mi
Dew Point: 75°   Wind: 5mph
Humidity: 74%   Direction: 100°E
Pressure: 29.94"   Gusts: NA
Location:  8.39°N, 98.26°E
Report Text: VTSP 260230Z 10004KT 9999 FEW017 BKN300 29/24 Q1014 A2994NOSIG
Loading
Personal Weather Stations






























Interactive Weather Map
Tropical Storm Tracking
New forecast layout! Learn more

10-Day Weather Forecast

Advertisements
Track Severe Weather on mobile